createdAt,value
2023-04-12T00:01:40.643Z,3.86
2023-04-12T00:04:12.262Z,3.80
2023-04-12T00:06:44.201Z,3.69
2023-04-12T00:09:15.680Z,3.65
2023-04-12T00:11:47.484Z,3.61
2023-04-12T00:14:18.968Z,3.55
2023-04-12T00:16:50.776Z,3.52
2023-04-12T00:19:22.248Z,3.47
2023-04-12T00:21:54.143Z,3.45
2023-04-12T00:24:25.651Z,3.36
2023-04-12T00:26:57.286Z,3.27
2023-04-12T00:29:28.756Z,3.22
2023-04-12T00:32:00.586Z,3.20
2023-04-12T00:34:32.060Z,3.17
2023-04-12T00:37:03.899Z,3.16
2023-04-12T00:39:35.351Z,3.19
2023-04-12T00:42:07.001Z,3.18
2023-04-12T00:44:38.616Z,3.11
2023-04-12T00:47:10.272Z,3.09
2023-04-12T00:49:41.756Z,3.04
2023-04-12T00:52:13.611Z,3.03
2023-04-12T00:54:45.076Z,3.00
2023-04-12T00:57:16.869Z,2.97
2023-04-12T00:59:48.373Z,2.92
2023-04-12T01:02:20.425Z,2.88
2023-04-12T01:04:51.927Z,2.87
2023-04-12T01:07:23.758Z,2.88
2023-04-12T01:09:55.230Z,2.83
2023-04-12T01:12:27.056Z,2.86
2023-04-12T01:14:58.544Z,2.84
2023-04-12T01:17:30.162Z,2.85
2023-04-12T01:20:01.732Z,2.81
2023-04-12T01:22:33.233Z,2.79
2023-04-12T01:25:04.723Z,2.77
2023-04-12T01:27:36.206Z,2.77
2023-04-12T01:30:07.676Z,2.75
2023-04-12T01:32:39.520Z,2.74
2023-04-12T01:35:11.014Z,2.73
2023-04-12T01:37:42.839Z,2.69
2023-04-12T01:40:14.296Z,2.66
2023-04-12T01:42:46.060Z,2.63
2023-04-12T01:45:17.555Z,2.60
2023-04-12T01:47:49.356Z,2.57
2023-04-12T01:50:20.943Z,2.50
2023-04-12T01:52:52.777Z,2.47
2023-04-12T01:55:24.268Z,2.44
2023-04-12T01:57:56.037Z,2.43
2023-04-12T02:00:27.498Z,2.38
2023-04-12T02:02:59.494Z,2.30
2023-04-12T02:05:31.159Z,2.34
2023-04-12T02:08:02.651Z,2.32
2023-04-12T02:10:34.143Z,2.28
2023-04-12T02:13:05.969Z,2.26
2023-04-12T02:15:37.459Z,2.25
2023-04-12T02:18:09.251Z,2.27
2023-04-12T02:20:40.817Z,2.24
2023-04-12T02:23:12.602Z,2.16
2023-04-12T02:25:44.065Z,2.12
2023-04-12T02:28:15.920Z,2.08
2023-04-12T02:30:47.391Z,2.07
2023-04-12T02:33:19.250Z,1.97
2023-04-12T02:35:50.793Z,1.92
2023-04-12T02:38:22.465Z,1.96
2023-04-12T02:40:53.922Z,1.94
2023-04-12T02:43:25.876Z,1.92
2023-04-12T02:45:57.365Z,1.93
2023-04-12T02:48:28.865Z,1.85
2023-04-12T02:51:00.325Z,1.86
2023-04-12T02:53:31.809Z,1.90
2023-04-12T02:56:04.858Z,1.81
2023-04-12T02:58:37.914Z,1.78
2023-04-12T03:01:09.401Z,1.76
2023-04-12T03:03:41.002Z,1.75
2023-04-12T03:06:12.690Z,1.76
2023-04-12T03:08:44.462Z,1.72
2023-04-12T03:11:15.961Z,1.74
2023-04-12T03:13:47.450Z,1.73
2023-04-12T03:16:19.320Z,1.73
2023-04-12T03:18:50.809Z,1.71
2023-04-12T03:21:22.648Z,1.69
2023-04-12T03:23:54.156Z,1.66
2023-04-12T03:26:26.034Z,1.65
2023-04-12T03:28:57.506Z,1.64
2023-04-12T03:31:29.035Z,1.64
2023-04-12T03:34:00.523Z,1.64
2023-04-12T03:36:32.001Z,1.64
2023-04-12T03:39:03.527Z,1.65
2023-04-12T03:41:35.087Z,1.67
2023-04-12T03:44:06.557Z,1.68
2023-04-12T03:46:38.560Z,1.65
2023-04-12T03:49:10.031Z,1.58
2023-04-12T03:51:42.007Z,1.56
2023-04-12T03:54:14.468Z,1.54
2023-04-12T03:56:46.489Z,1.53
2023-04-12T03:59:18.004Z,1.51
2023-04-12T04:01:49.831Z,1.45
2023-04-12T04:04:21.492Z,1.41
2023-04-12T04:06:53.424Z,1.40
2023-04-12T04:09:24.871Z,1.45
2023-04-12T04:11:56.355Z,1.45
2023-04-12T04:14:27.814Z,1.45
2023-04-12T04:16:59.645Z,1.43
2023-04-12T04:19:31.121Z,1.35
2023-04-12T04:22:02.969Z,1.34
2023-04-12T04:24:34.455Z,1.36
2023-04-12T04:27:06.236Z,1.32
2023-04-12T04:29:37.688Z,1.33
2023-04-12T04:32:09.498Z,1.39
2023-04-12T04:34:40.961Z,1.43
2023-04-12T04:37:12.740Z,1.46
2023-04-12T04:39:44.200Z,1.45
2023-04-12T04:42:15.847Z,1.44
2023-04-12T04:44:47.488Z,1.41
2023-04-12T04:47:19.366Z,1.39
2023-04-12T04:49:50.830Z,1.54
2023-04-12T04:52:22.644Z,1.62
2023-04-12T04:54:54.088Z,1.63
2023-04-12T04:57:25.858Z,1.73
2023-04-12T04:59:57.305Z,1.76
2023-04-12T05:02:28.836Z,1.80
2023-04-12T05:05:00.370Z,1.93
2023-04-12T05:07:32.010Z,2.03
2023-04-12T05:10:03.468Z,2.10
2023-04-12T05:12:34.939Z,2.19
2023-04-12T05:15:11.621Z,2.28
2023-04-12T05:17:43.871Z,2.26
2023-04-12T05:20:15.345Z,2.39
2023-04-12T05:22:46.872Z,2.55
2023-04-12T05:25:18.322Z,2.68
2023-04-12T05:27:51.905Z,2.72
2023-04-12T05:30:23.700Z,2.92
2023-04-12T05:32:55.281Z,3.07
2023-04-12T05:35:26.821Z,3.25
2023-04-12T05:37:58.608Z,3.41
2023-04-12T05:40:30.103Z,3.67
2023-04-12T05:43:01.858Z,3.92
2023-04-12T05:45:33.350Z,4.08
2023-04-12T05:48:04.891Z,4.27
2023-04-12T05:50:36.431Z,4.46
2023-04-12T05:53:08.250Z,4.57
2023-04-12T05:55:39.713Z,4.77
2023-04-12T05:58:11.528Z,4.95
2023-04-12T06:00:43.024Z,5.23
2023-04-12T06:03:15.088Z,5.44
2023-04-12T06:05:46.685Z,5.58
2023-04-12T06:08:18.688Z,5.74
2023-04-12T06:10:50.139Z,5.88
2023-04-12T06:13:21.943Z,6.04
2023-04-12T06:15:53.453Z,6.15
2023-04-12T06:18:25.222Z,6.35
2023-04-12T06:20:56.670Z,6.54
2023-04-12T06:23:29.293Z,6.48
2023-04-12T06:26:00.729Z,6.57
2023-04-12T06:28:32.190Z,6.67
2023-04-12T06:31:03.665Z,6.87
2023-04-12T06:33:35.154Z,7.06
2023-04-12T06:36:06.649Z,7.24
2023-04-12T06:38:38.421Z,7.61
2023-04-12T06:41:10.036Z,6.58
2023-04-12T06:43:41.730Z,7.87
2023-04-12T06:46:13.178Z,8.12
2023-04-12T06:48:45.121Z,8.15
2023-04-12T06:51:16.560Z,8.36
2023-04-12T06:53:48.340Z,8.45
2023-04-12T06:56:19.816Z,8.74
2023-04-12T06:58:51.756Z,8.67
2023-04-12T07:01:23.296Z,9.02
2023-04-12T07:03:55.222Z,8.97
2023-04-12T07:06:26.812Z,9.37
2023-04-12T07:08:58.974Z,9.23
2023-04-12T07:11:30.641Z,9.34
2023-04-12T07:14:02.439Z,9.37
2023-04-12T07:16:33.950Z,10.01
2023-04-12T07:19:05.764Z,9.64
2023-04-12T07:21:37.225Z,10.10
2023-04-12T07:24:09.037Z,10.32
2023-04-12T07:26:40.974Z,10.42
2023-04-12T07:29:12.439Z,10.59
2023-04-12T07:31:44.272Z,10.38
2023-04-12T07:34:15.843Z,10.57
2023-04-12T07:36:47.401Z,10.95
2023-04-12T07:39:18.900Z,11.15
2023-04-12T07:41:50.562Z,11.03
2023-04-12T07:44:22.019Z,11.62
2023-04-12T07:46:53.876Z,11.51
2023-04-12T07:49:25.350Z,11.65
2023-04-12T07:51:57.122Z,11.67
2023-04-12T07:54:28.606Z,11.73
2023-04-12T07:57:00.397Z,12.11
2023-04-12T07:59:31.859Z,12.18
2023-04-12T08:02:03.982Z,11.67
2023-04-12T08:04:35.629Z,11.92
2023-04-12T08:07:07.377Z,12.03
2023-04-12T08:09:38.817Z,12.06
2023-04-12T08:12:10.264Z,12.19
2023-04-12T08:14:41.718Z,12.38
2023-04-12T08:17:13.225Z,12.84
2023-04-12T08:19:44.684Z,12.31
2023-04-12T08:22:16.493Z,12.22
2023-04-12T08:24:47.960Z,13.06
2023-04-12T08:27:19.425Z,13.31
2023-04-12T08:29:50.894Z,13.35
2023-04-12T08:32:22.391Z,13.59
2023-04-12T08:34:53.907Z,13.75
2023-04-12T08:37:25.756Z,13.50
2023-04-12T08:39:57.234Z,13.73
2023-04-12T08:42:29.746Z,13.53
2023-04-12T08:45:01.209Z,14.01
2023-04-12T08:47:32.702Z,14.29
2023-04-12T08:50:04.209Z,13.90
2023-04-12T08:52:35.703Z,14.07
2023-04-12T08:55:07.161Z,14.33
2023-04-12T08:57:38.945Z,13.35
2023-04-12T09:00:10.435Z,14.05
2023-04-12T09:02:42.179Z,14.06
2023-04-12T09:05:13.849Z,14.06
2023-04-12T09:07:45.579Z,14.17
2023-04-12T09:10:17.200Z,14.47
2023-04-12T09:12:50.288Z,14.37
2023-04-12T09:15:23.173Z,14.85
2023-04-12T09:17:54.880Z,15.01
2023-04-12T09:20:26.360Z,14.83
2023-04-12T09:22:58.162Z,14.64
2023-04-12T09:25:29.677Z,14.87
2023-04-12T09:28:01.488Z,15.09
2023-04-12T09:30:32.934Z,14.78
2023-04-12T09:33:04.775Z,15.09
2023-04-12T09:35:36.372Z,14.88
2023-04-12T09:38:09.058Z,15.69
2023-04-12T09:40:40.761Z,15.63
2023-04-12T09:43:12.233Z,15.65
2023-04-12T09:45:44.063Z,15.22
2023-04-12T09:48:15.618Z,15.30
2023-04-12T09:50:47.529Z,15.94
2023-04-12T09:53:19.031Z,15.36
2023-04-12T09:55:50.825Z,14.77
2023-04-12T09:58:22.285Z,14.88
2023-04-12T10:00:53.748Z,15.28
2023-04-12T10:03:25.319Z,15.53
2023-04-12T10:05:57.236Z,16.20
2023-04-12T10:08:28.713Z,17.01
2023-04-12T10:11:00.626Z,16.29
2023-04-12T10:13:32.097Z,16.08
2023-04-12T10:16:03.610Z,16.24
2023-04-12T10:18:35.074Z,16.82
2023-04-12T10:21:06.752Z,17.08
2023-04-12T10:23:38.187Z,16.34
2023-04-12T10:26:09.820Z,16.55
2023-04-12T10:28:41.282Z,17.30
2023-04-12T10:31:13.144Z,17.52
2023-04-12T10:33:44.642Z,16.87
2023-04-12T10:36:16.849Z,16.22
2023-04-12T10:38:48.349Z,16.97
2023-04-12T10:41:20.185Z,16.98
2023-04-12T10:43:51.648Z,16.91
2023-04-12T10:46:23.173Z,17.12
2023-04-12T10:48:54.766Z,17.19
2023-04-12T10:51:26.741Z,17.17
2023-04-12T10:53:58.265Z,17.59
2023-04-12T10:56:32.049Z,17.68
2023-04-12T10:59:04.489Z,17.10
2023-04-12T11:01:38.636Z,17.99
2023-04-12T11:04:11.074Z,17.56
2023-04-12T11:06:43.055Z,17.89
2023-04-12T11:09:14.896Z,18.30
2023-04-12T11:11:46.352Z,18.00
2023-04-12T11:14:18.281Z,17.48
2023-04-12T11:16:49.808Z,17.87
2023-04-12T11:19:21.531Z,17.78
2023-04-12T11:21:53.032Z,18.77
2023-04-12T11:24:24.515Z,18.83
2023-04-12T11:26:55.969Z,18.93
2023-04-12T11:29:27.727Z,17.80
2023-04-12T11:31:59.189Z,17.94
2023-04-12T11:34:30.679Z,17.69
2023-04-12T11:37:02.301Z,17.54
2023-04-12T11:39:35.475Z,17.02
2023-04-12T11:42:09.899Z,18.32
2023-04-12T11:44:56.012Z,18.45
2023-04-12T11:47:29.548Z,18.18
2023-04-12T11:50:01.441Z,18.37
2023-04-12T11:52:32.917Z,18.96
2023-04-12T11:55:04.716Z,19.20
2023-04-12T11:57:36.230Z,19.17
2023-04-12T12:00:08.178Z,18.42
2023-04-12T12:02:49.034Z,17.81
2023-04-12T12:05:28.143Z,18.34
2023-04-12T12:08:01.252Z,18.18
2023-04-12T12:13:10.123Z,17.39
2023-04-12T12:15:41.682Z,18.26
2023-04-12T12:18:13.524Z,18.07
2023-04-12T12:20:44.997Z,17.48
2023-04-12T12:23:16.459Z,18.29
2023-04-12T12:25:47.921Z,18.62
2023-04-12T12:28:19.657Z,18.25
2023-04-12T12:30:51.217Z,18.14
2023-04-12T12:33:29.090Z,17.40
2023-04-12T12:36:10.525Z,17.06
2023-04-12T12:38:42.399Z,17.27
2023-04-12T12:41:13.860Z,17.13
2023-04-12T12:43:45.800Z,17.08
2023-04-12T12:46:17.375Z,17.17
2023-04-12T12:48:49.140Z,17.54
2023-04-12T12:51:20.591Z,16.94
2023-04-12T12:53:52.436Z,16.82
2023-04-12T12:56:23.913Z,17.23
2023-04-12T12:58:56.027Z,16.84
2023-04-12T13:01:27.741Z,17.47
2023-04-12T13:03:59.817Z,18.00
2023-04-12T13:06:31.334Z,18.39
2023-04-12T13:09:02.780Z,18.22
2023-04-12T13:11:34.236Z,17.81
2023-04-12T13:14:06.039Z,18.09
2023-04-12T13:16:37.539Z,18.34
2023-04-12T13:19:09.340Z,18.32
2023-04-12T13:21:40.825Z,18.72
2023-04-12T13:24:12.460Z,18.40
2023-04-12T13:26:43.965Z,18.51
2023-04-12T13:29:15.435Z,18.54
2023-04-12T13:31:46.925Z,17.83
2023-04-12T13:34:18.825Z,17.44
2023-04-12T13:36:50.334Z,17.32
2023-04-12T13:39:22.126Z,17.20
2023-04-12T13:41:53.606Z,17.59
2023-04-12T13:44:25.083Z,17.06
2023-04-12T13:46:56.513Z,17.01
2023-04-12T13:49:28.564Z,17.58
2023-04-12T13:52:00.025Z,17.29
2023-04-12T13:54:31.597Z,16.96
2023-04-12T13:57:03.035Z,16.80
2023-04-12T13:59:34.494Z,16.77
2023-04-12T14:02:06.004Z,16.38
2023-04-12T14:04:37.830Z,16.34
2023-04-12T14:07:09.335Z,15.85
2023-04-12T14:09:41.321Z,15.70
2023-04-12T14:12:12.785Z,15.14
2023-04-12T14:14:44.482Z,15.09
2023-04-12T14:17:15.959Z,15.33
2023-04-12T14:19:47.827Z,15.43
2023-04-12T14:22:19.290Z,15.18
2023-04-12T14:24:51.022Z,14.87
2023-04-12T14:27:22.564Z,14.88
2023-04-12T14:29:54.305Z,14.71
2023-04-12T14:32:25.830Z,14.45
2023-04-12T14:34:57.353Z,14.32
2023-04-12T14:37:28.802Z,14.48
2023-04-12T14:40:00.280Z,14.29
2023-04-12T14:42:31.768Z,14.29
2023-04-12T14:45:03.269Z,14.21
2023-04-12T14:47:34.792Z,14.56
2023-04-12T14:50:06.247Z,14.44
2023-04-12T14:52:37.904Z,14.61
2023-04-12T14:55:09.410Z,14.31
2023-04-12T14:57:41.021Z,14.05
2023-04-12T15:00:12.466Z,14.09
2023-04-12T15:02:44.073Z,13.86
2023-04-12T15:05:15.922Z,13.60
2023-04-12T15:07:48.641Z,13.79
2023-04-12T15:10:20.792Z,13.34
2023-04-12T15:12:52.536Z,13.26
2023-04-12T15:15:23.971Z,13.28
2023-04-12T15:17:55.692Z,12.70
2023-04-12T15:20:27.177Z,12.43
2023-04-12T15:22:59.019Z,12.16
2023-04-12T15:25:30.475Z,12.06
2023-04-12T15:28:01.927Z,12.12
2023-04-12T15:30:33.366Z,11.86
2023-04-12T15:33:05.003Z,11.76
2023-04-12T15:35:36.498Z,11.78
2023-04-12T15:38:08.071Z,11.74
2023-04-12T15:40:39.512Z,11.65
2023-04-12T15:43:11.189Z,11.63
2023-04-12T15:45:42.756Z,11.74
2023-04-12T15:48:14.732Z,11.70
2023-04-12T15:50:46.203Z,11.88
2023-04-12T15:53:17.908Z,11.99
2023-04-12T15:55:49.356Z,12.01
2023-04-12T15:58:20.803Z,11.83
2023-04-12T16:00:52.245Z,11.81
2023-04-12T16:03:24.121Z,11.75
2023-04-12T16:05:55.668Z,11.83
2023-04-12T16:08:27.370Z,11.96
2023-04-12T16:10:58.854Z,12.05
2023-04-12T16:13:30.315Z,12.15
2023-04-12T16:16:01.887Z,12.04
2023-04-12T16:18:33.368Z,12.12
2023-04-12T16:21:04.807Z,12.49
2023-04-12T16:23:36.280Z,12.15
2023-04-12T16:26:07.733Z,11.75
2023-04-12T16:28:39.545Z,11.74
2023-04-12T16:31:11.091Z,11.50
2023-04-12T16:33:45.142Z,11.25
2023-04-12T16:36:16.813Z,11.17
2023-04-12T16:38:48.713Z,11.08
2023-04-12T16:41:20.464Z,11.11
2023-04-12T16:43:51.923Z,11.18
2023-04-12T16:46:23.625Z,11.18
2023-04-12T16:48:55.274Z,11.12
2023-04-12T16:51:26.827Z,11.08
2023-04-12T16:53:58.567Z,11.19
2023-04-12T16:56:30.295Z,11.08
2023-04-12T16:59:01.765Z,10.93
2023-04-12T17:01:33.244Z,10.84
2023-04-12T17:04:04.928Z,10.98
2023-04-12T17:06:36.933Z,10.86
2023-04-12T17:09:09.452Z,10.90
2023-04-12T17:11:40.931Z,10.90
2023-04-12T17:14:12.394Z,10.91
2023-04-12T17:16:44.087Z,10.83
2023-04-12T17:19:15.680Z,10.69
2023-04-12T17:21:47.173Z,10.70
2023-04-12T17:24:18.704Z,10.81
2023-04-12T17:26:50.189Z,10.84
2023-04-12T17:29:21.979Z,10.83
2023-04-12T17:31:55.066Z,10.80
2023-04-12T17:34:26.662Z,10.82
2023-04-12T17:36:58.143Z,10.87
2023-04-12T17:39:29.615Z,10.87
2023-04-12T17:42:01.447Z,10.81
2023-04-12T17:44:32.932Z,10.74
2023-04-12T17:47:04.771Z,10.79
2023-04-12T17:49:36.253Z,10.72
2023-04-12T17:52:07.940Z,10.76
2023-04-12T17:54:39.417Z,10.81
2023-04-12T17:57:10.963Z,10.82
2023-04-12T17:59:42.433Z,10.74
2023-04-12T18:02:14.391Z,10.78
2023-04-12T18:04:46.094Z,10.78
2023-04-12T18:07:18.152Z,10.65
2023-04-12T18:09:49.619Z,10.69
2023-04-12T18:12:21.434Z,10.70
2023-04-12T18:14:53.114Z,10.64
2023-04-12T18:17:26.444Z,10.73
2023-04-12T18:19:59.982Z,10.69
2023-04-12T18:22:32.727Z,10.66
2023-04-12T18:25:04.209Z,10.62
2023-04-12T18:27:35.692Z,10.71
2023-04-12T18:30:07.589Z,10.69
2023-04-12T18:32:39.132Z,10.62
2023-04-12T18:35:11.035Z,10.60
2023-04-12T18:37:42.687Z,10.65
2023-04-12T18:40:14.412Z,10.67
2023-04-12T18:42:45.963Z,10.57
2023-04-12T18:45:17.792Z,10.52
2023-04-12T18:47:49.345Z,10.49
2023-04-12T18:50:21.211Z,10.51
2023-04-12T18:52:52.664Z,10.43
2023-04-12T18:55:24.569Z,10.37
2023-04-12T18:57:56.051Z,10.44
2023-04-12T19:00:27.945Z,10.41
2023-04-12T19:02:59.533Z,10.37
2023-04-12T19:05:31.108Z,10.35
2023-04-12T19:08:02.596Z,10.30
2023-04-12T19:10:34.071Z,10.33
2023-04-12T19:13:05.537Z,10.32
2023-04-12T19:15:37.243Z,10.37
2023-04-12T19:18:08.797Z,10.11
2023-04-12T19:20:40.388Z,10.34
2023-04-12T19:23:11.877Z,10.33
2023-04-12T19:25:43.664Z,10.35
2023-04-12T19:28:15.188Z,10.27
2023-04-12T19:30:46.982Z,10.26
2023-04-12T19:33:18.489Z,10.33
2023-04-12T19:35:50.296Z,10.25
2023-04-12T19:38:21.784Z,10.24
2023-04-12T19:40:53.449Z,10.18
2023-04-12T19:43:24.937Z,10.25
2023-04-12T19:45:56.663Z,10.18
2023-04-12T19:48:28.516Z,10.11
2023-04-12T19:51:00.002Z,10.09
2023-04-12T19:53:31.497Z,10.09
2023-04-12T19:56:03.002Z,10.06
2023-04-12T19:58:34.516Z,10.10
2023-04-12T20:01:05.996Z,10.10
2023-04-12T20:03:37.739Z,10.09
2023-04-12T20:06:09.224Z,10.02
2023-04-12T20:08:41.034Z,10.06
2023-04-12T20:11:12.492Z,10.03
2023-04-12T20:13:43.990Z,10.02
2023-04-12T20:16:15.449Z,10.01
2023-04-12T20:18:47.268Z,10.01
2023-04-12T20:21:18.737Z,10.02
2023-04-12T20:23:50.589Z,9.96
2023-04-12T20:26:22.061Z,10.01
2023-04-12T20:28:53.782Z,10.02
2023-04-12T20:31:25.345Z,9.96
2023-04-12T20:33:57.039Z,9.92
2023-04-12T20:36:28.523Z,9.91
2023-04-12T20:39:00.478Z,9.87
2023-04-12T20:41:32.057Z,9.85
2023-04-12T20:44:04.008Z,9.80
2023-04-12T20:46:36.748Z,9.76
2023-04-12T20:49:08.800Z,9.73
2023-04-12T20:51:40.276Z,9.63
2023-04-12T20:54:12.104Z,9.64
2023-04-12T20:56:43.575Z,9.51
2023-04-12T20:59:15.375Z,9.50
2023-04-12T21:01:46.980Z,9.47
2023-04-12T21:04:18.956Z,9.36
2023-04-12T21:06:50.474Z,9.33
2023-04-12T21:09:22.316Z,9.30
2023-04-12T21:11:53.774Z,9.27
2023-04-12T21:14:25.601Z,9.22
2023-04-12T21:16:57.064Z,9.20
2023-04-12T21:19:28.557Z,9.23
2023-04-12T21:22:00.005Z,9.14
2023-04-12T21:24:31.560Z,9.11
2023-04-12T21:27:03.025Z,9.05
2023-04-12T21:29:34.526Z,9.06
2023-04-12T21:32:06.131Z,9.06
2023-04-12T21:34:38.165Z,9.11
2023-04-12T21:37:09.646Z,9.17
2023-04-12T21:39:41.457Z,9.11
2023-04-12T21:42:13.000Z,9.11
2023-04-12T21:44:44.892Z,9.07
2023-04-12T21:47:16.366Z,9.05
2023-04-12T21:49:48.095Z,9.06
2023-04-12T21:52:19.557Z,9.07
2023-04-12T21:54:51.430Z,9.08
2023-04-12T21:57:22.917Z,9.14
2023-04-12T21:59:54.641Z,9.07
2023-04-12T22:02:26.172Z,9.05
2023-04-12T22:04:58.223Z,8.99
2023-04-12T22:07:29.799Z,9.01
2023-04-12T22:10:01.594Z,8.98
2023-04-12T22:12:33.048Z,9.05
2023-04-12T22:15:04.884Z,9.04
2023-04-12T22:17:36.362Z,9.00
2023-04-12T22:20:07.902Z,9.07
2023-04-12T22:22:39.398Z,9.03
2023-04-12T22:25:10.896Z,9.00
2023-04-12T22:27:42.351Z,9.01
2023-04-12T22:30:14.207Z,9.06
2023-04-12T22:32:45.733Z,8.95
2023-04-12T22:35:17.604Z,8.97
2023-04-12T22:37:49.074Z,8.97
2023-04-12T22:40:20.860Z,9.01
2023-04-12T22:42:52.363Z,9.02
2023-04-12T22:45:23.846Z,8.99
2023-04-12T22:47:55.355Z,9.00
2023-04-12T22:50:26.877Z,9.07
2023-04-12T22:52:58.349Z,9.01
2023-04-12T22:55:29.902Z,8.95
2023-04-12T22:58:01.345Z,8.97
2023-04-12T23:00:32.821Z,8.84
2023-04-12T23:03:04.517Z,8.84
2023-04-12T23:05:36.116Z,8.78
2023-04-12T23:08:07.635Z,8.74
2023-04-12T23:10:39.593Z,8.72
2023-04-12T23:13:11.070Z,8.68
2023-04-12T23:15:42.655Z,8.70
2023-04-12T23:18:14.147Z,8.69
2023-04-12T23:20:45.964Z,8.67
2023-04-12T23:23:17.413Z,8.62
2023-04-12T23:25:49.221Z,8.58
2023-04-12T23:28:20.690Z,8.56
2023-04-12T23:30:52.461Z,8.52
2023-04-12T23:33:23.938Z,8.51
2023-04-12T23:35:55.765Z,8.50
2023-04-12T23:38:27.270Z,8.48
2023-04-12T23:40:59.179Z,8.46
2023-04-12T23:43:30.665Z,8.46
2023-04-12T23:46:02.420Z,8.42
2023-04-12T23:48:33.910Z,8.38
2023-04-12T23:51:05.856Z,7.57
2023-04-12T23:53:37.310Z,8.43
2023-04-12T23:56:08.805Z,8.40
2023-04-12T23:58:40.297Z,8.42
